Terminal Aerodrome Forecast
Issued by NWS

Home | Current Version | Previous Version | Graphics & Text | Print | Product List | Glossary Off
Versions: 1 2 3 4 5 6 7 8 9 10 11 12 13 14 15 16 17 18 19 20 21 22

000
FTUS43 KDDC 140524
TAFHYS
TAF
KHYS 140524Z 1406/1506 05005KT P6SM BKN025
     FM140900 07005KT 4SM BR BKN015
      TEMPO 1412/1415 1SM BR OVC003
     FM141600 09007KT P6SM BKN035
     FM141900 34015G23KT P6SM SCT150
     FM142100 33025G33KT P6SM SCT200=

USA.gov is the U.S. government's official web portal to all federal, state and local government web resources and services.